sensor_id;sensor_type;location;lat;lon;timestamp;temperature;humidity
12329;DHT22;6230;52.390;10.256;2023-04-03T00:01:34;7.20;57.20
12329;DHT22;6230;52.390;10.256;2023-04-03T00:04:00;7.20;57.20
12329;DHT22;6230;52.390;10.256;2023-04-03T00:06:26;7.20;57.20
12329;DHT22;6230;52.390;10.256;2023-04-03T00:08:52;7.20;57.10
12329;DHT22;6230;52.390;10.256;2023-04-03T00:11:17;7.10;57.00
12329;DHT22;6230;52.390;10.256;2023-04-03T00:13:44;7.20;57.10
12329;DHT22;6230;52.390;10.256;2023-04-03T00:16:11;7.20;57.10
12329;DHT22;6230;52.390;10.256;2023-04-03T00:18:37;7.10;57.00
12329;DHT22;6230;52.390;10.256;2023-04-03T00:21:04;7.10;57.00
12329;DHT22;6230;52.390;10.256;2023-04-03T00:23:30;7.10;56.90
12329;DHT22;6230;52.390;10.256;2023-04-03T00:25:55;7.10;57.00
12329;DHT22;6230;52.390;10.256;2023-04-03T00:28:21;7.10;57.00
12329;DHT22;6230;52.390;10.256;2023-04-03T00:30:49;7.00;57.00
12329;DHT22;6230;52.390;10.256;2023-04-03T00:33:14;7.10;57.00
12329;DHT22;6230;52.390;10.256;2023-04-03T00:35:40;7.00;57.00
12329;DHT22;6230;52.390;10.256;2023-04-03T00:38:07;7.00;57.10
12329;DHT22;6230;52.390;10.256;2023-04-03T00:40:36;7.00;57.10
12329;DHT22;6230;52.390;10.256;2023-04-03T00:43:04;7.00;57.10
12329;DHT22;6230;52.390;10.256;2023-04-03T00:45:37;7.00;57.10
12329;DHT22;6230;52.390;10.256;2023-04-03T00:48:05;6.90;57.20
12329;DHT22;6230;52.390;10.256;2023-04-03T00:50:34;6.90;57.20
12329;DHT22;6230;52.390;10.256;2023-04-03T00:53:01;6.80;57.30
12329;DHT22;6230;52.390;10.256;2023-04-03T00:55:27;6.90;57.50
12329;DHT22;6230;52.390;10.256;2023-04-03T00:57:53;6.90;57.50
12329;DHT22;6230;52.390;10.256;2023-04-03T01:00:21;6.80;57.50
12329;DHT22;6230;52.390;10.256;2023-04-03T01:02:48;6.80;57.50
12329;DHT22;6230;52.390;10.256;2023-04-03T01:05:15;6.80;57.60
12329;DHT22;6230;52.390;10.256;2023-04-03T01:07:41;6.80;57.70
12329;DHT22;6230;52.390;10.256;2023-04-03T01:10:09;6.80;57.70
12329;DHT22;6230;52.390;10.256;2023-04-03T01:12:40;6.70;57.80
12329;DHT22;6230;52.390;10.256;2023-04-03T01:15:24;6.70;57.90
12329;DHT22;6230;52.390;10.256;2023-04-03T01:17:58;6.70;57.90
12329;DHT22;6230;52.390;10.256;2023-04-03T01:25:25;6.60;58.10
12329;DHT22;6230;52.390;10.256;2023-04-03T01:27:51;6.50;58.10
12329;DHT22;6230;52.390;10.256;2023-04-03T01:30:19;6.50;58.10
12329;DHT22;6230;52.390;10.256;2023-04-03T01:32:45;6.50;58.30
12329;DHT22;6230;52.390;10.256;2023-04-03T01:35:11;6.50;58.30
12329;DHT22;6230;52.390;10.256;2023-04-03T01:37:36;6.40;58.30
12329;DHT22;6230;52.390;10.256;2023-04-03T01:40:03;6.40;58.30
12329;DHT22;6230;52.390;10.256;2023-04-03T01:42:28;6.40;58.30
12329;DHT22;6230;52.390;10.256;2023-04-03T01:44:54;6.40;58.40
12329;DHT22;6230;52.390;10.256;2023-04-03T01:47:21;6.30;58.40
12329;DHT22;6230;52.390;10.256;2023-04-03T01:49:46;6.30;58.40
12329;DHT22;6230;52.390;10.256;2023-04-03T01:52:12;6.30;58.50
12329;DHT22;6230;52.390;10.256;2023-04-03T01:54:37;6.30;58.50
12329;DHT22;6230;52.390;10.256;2023-04-03T01:57:03;6.20;58.50
12329;DHT22;6230;52.390;10.256;2023-04-03T01:59:28;6.20;58.60
12329;DHT22;6230;52.390;10.256;2023-04-03T02:01:54;6.20;58.70
12329;DHT22;6230;52.390;10.256;2023-04-03T02:04:20;6.20;58.60
12329;DHT22;6230;52.390;10.256;2023-04-03T02:06:45;6.20;58.70
12329;DHT22;6230;52.390;10.256;2023-04-03T02:09:11;6.20;58.70
12329;DHT22;6230;52.390;10.256;2023-04-03T02:11:36;6.20;58.70
12329;DHT22;6230;52.390;10.256;2023-04-03T02:14:02;6.10;58.80
12329;DHT22;6230;52.390;10.256;2023-04-03T02:16:27;6.10;58.80
12329;DHT22;6230;52.390;10.256;2023-04-03T02:18:54;6.10;58.90
12329;DHT22;6230;52.390;10.256;2023-04-03T02:21:19;6.10;58.90
12329;DHT22;6230;52.390;10.256;2023-04-03T02:23:45;6.10;58.90
12329;DHT22;6230;52.390;10.256;2023-04-03T02:26:13;6.10;58.90
12329;DHT22;6230;52.390;10.256;2023-04-03T02:28:39;6.00;59.00
12329;DHT22;6230;52.390;10.256;2023-04-03T02:31:06;6.00;59.00
12329;DHT22;6230;52.390;10.256;2023-04-03T02:33:32;6.00;59.10
12329;DHT22;6230;52.390;10.256;2023-04-03T02:35:58;6.00;59.10
12329;DHT22;6230;52.390;10.256;2023-04-03T02:38:24;6.00;59.10
12329;DHT22;6230;52.390;10.256;2023-04-03T02:40:50;5.90;59.10
12329;DHT22;6230;52.390;10.256;2023-04-03T02:43:16;5.90;59.20
12329;DHT22;6230;52.390;10.256;2023-04-03T02:45:42;5.90;59.30
12329;DHT22;6230;52.390;10.256;2023-04-03T02:48:07;5.90;59.30
12329;DHT22;6230;52.390;10.256;2023-04-03T02:50:33;5.80;59.30
12329;DHT22;6230;52.390;10.256;2023-04-03T02:52:59;5.80;59.40
12329;DHT22;6230;52.390;10.256;2023-04-03T02:55:24;5.80;59.40
12329;DHT22;6230;52.390;10.256;2023-04-03T02:57:50;5.80;59.50
12329;DHT22;6230;52.390;10.256;2023-04-03T03:00:16;5.80;59.50
12329;DHT22;6230;52.390;10.256;2023-04-03T03:02:42;5.80;59.60
12329;DHT22;6230;52.390;10.256;2023-04-03T03:05:08;5.80;59.60
12329;DHT22;6230;52.390;10.256;2023-04-03T03:07:33;5.80;60.30
12329;DHT22;6230;52.390;10.256;2023-04-03T03:09:59;5.70;59.60
12329;DHT22;6230;52.390;10.256;2023-04-03T03:12:25;5.70;59.70
12329;DHT22;6230;52.390;10.256;2023-04-03T03:14:50;5.70;59.70
12329;DHT22;6230;52.390;10.256;2023-04-03T03:17:16;5.70;59.70
12329;DHT22;6230;52.390;10.256;2023-04-03T03:19:43;5.70;59.70
12329;DHT22;6230;52.390;10.256;2023-04-03T03:22:08;5.70;59.80
12329;DHT22;6230;52.390;10.256;2023-04-03T03:24:34;5.70;59.80
12329;DHT22;6230;52.390;10.256;2023-04-03T03:27:00;5.70;59.70
12329;DHT22;6230;52.390;10.256;2023-04-03T03:29:25;5.70;59.80
12329;DHT22;6230;52.390;10.256;2023-04-03T03:31:51;5.70;59.80
12329;DHT22;6230;52.390;10.256;2023-04-03T03:34:16;5.70;59.80
12329;DHT22;6230;52.390;10.256;2023-04-03T03:36:42;5.70;59.80
12329;DHT22;6230;52.390;10.256;2023-04-03T03:39:07;5.70;59.80
12329;DHT22;6230;52.390;10.256;2023-04-03T03:41:33;5.70;59.80
12329;DHT22;6230;52.390;10.256;2023-04-03T03:43:58;5.60;59.80
12329;DHT22;6230;52.390;10.256;2023-04-03T03:46:24;5.60;59.80
12329;DHT22;6230;52.390;10.256;2023-04-03T03:48:50;5.60;59.90
12329;DHT22;6230;52.390;10.256;2023-04-03T03:51:15;5.60;59.90
12329;DHT22;6230;52.390;10.256;2023-04-03T03:53:41;5.60;59.90
12329;DHT22;6230;52.390;10.256;2023-04-03T03:56:06;5.60;60.00
12329;DHT22;6230;52.390;10.256;2023-04-03T03:58:32;5.60;60.00
12329;DHT22;6230;52.390;10.256;2023-04-03T04:01:05;5.50;60.00
12329;DHT22;6230;52.390;10.256;2023-04-03T04:03:31;5.50;60.20
12329;DHT22;6230;52.390;10.256;2023-04-03T04:05:57;5.50;60.10
12329;DHT22;6230;52.390;10.256;2023-04-03T04:08:23;5.50;60.10
12329;DHT22;6230;52.390;10.256;2023-04-03T04:10:49;5.50;60.10
12329;DHT22;6230;52.390;10.256;2023-04-03T04:13:14;5.50;60.10
12329;DHT22;6230;52.390;10.256;2023-04-03T04:15:40;5.50;61.00
12329;DHT22;6230;52.390;10.256;2023-04-03T04:18:06;5.50;60.20
12329;DHT22;6230;52.390;10.256;2023-04-03T04:20:31;5.50;60.30
12329;DHT22;6230;52.390;10.256;2023-04-03T04:22:57;5.50;60.30
12329;DHT22;6230;52.390;10.256;2023-04-03T04:25:22;5.50;60.40
12329;DHT22;6230;52.390;10.256;2023-04-03T04:27:48;5.50;60.30
12329;DHT22;6230;52.390;10.256;2023-04-03T04:30:14;5.50;60.20
12329;DHT22;6230;52.390;10.256;2023-04-03T04:32:39;5.50;60.20
12329;DHT22;6230;52.390;10.256;2023-04-03T04:35:05;5.50;60.20
12329;DHT22;6230;52.390;10.256;2023-04-03T04:37:31;5.50;60.20
12329;DHT22;6230;52.390;10.256;2023-04-03T04:39:57;5.50;60.30
12329;DHT22;6230;52.390;10.256;2023-04-03T04:42:23;5.40;60.20
12329;DHT22;6230;52.390;10.256;2023-04-03T04:44:49;5.40;60.30
12329;DHT22;6230;52.390;10.256;2023-04-03T04:47:14;5.40;60.30
12329;DHT22;6230;52.390;10.256;2023-04-03T04:49:40;5.40;60.30
12329;DHT22;6230;52.390;10.256;2023-04-03T04:52:05;5.40;60.30
12329;DHT22;6230;52.390;10.256;2023-04-03T04:54:31;5.40;60.40
12329;DHT22;6230;52.390;10.256;2023-04-03T04:56:57;5.40;60.40
12329;DHT22;6230;52.390;10.256;2023-04-03T04:59:22;5.40;60.40
12329;DHT22;6230;52.390;10.256;2023-04-03T05:01:48;5.40;60.50
12329;DHT22;6230;52.390;10.256;2023-04-03T05:04:13;5.40;60.50
12329;DHT22;6230;52.390;10.256;2023-04-03T05:06:40;5.40;60.50
12329;DHT22;6230;52.390;10.256;2023-04-03T05:09:05;5.30;60.50
12329;DHT22;6230;52.390;10.256;2023-04-03T05:11:32;5.30;60.60
12329;DHT22;6230;52.390;10.256;2023-04-03T05:13:57;5.30;60.70
12329;DHT22;6230;52.390;10.256;2023-04-03T05:16:23;5.30;60.80
12329;DHT22;6230;52.390;10.256;2023-04-03T05:18:49;5.30;60.80
12329;DHT22;6230;52.390;10.256;2023-04-03T05:21:14;5.30;60.90
12329;DHT22;6230;52.390;10.256;2023-04-03T05:23:40;5.30;61.00
12329;DHT22;6230;52.390;10.256;2023-04-03T05:26:05;5.30;61.00
12329;DHT22;6230;52.390;10.256;2023-04-03T05:28:31;5.30;61.10
12329;DHT22;6230;52.390;10.256;2023-04-03T05:30:58;5.30;61.20
12329;DHT22;6230;52.390;10.256;2023-04-03T05:33:23;5.30;61.30
12329;DHT22;6230;52.390;10.256;2023-04-03T05:35:49;5.30;61.40
12329;DHT22;6230;52.390;10.256;2023-04-03T05:38:15;5.20;61.40
12329;DHT22;6230;52.390;10.256;2023-04-03T05:40:40;5.30;61.60
12329;DHT22;6230;52.390;10.256;2023-04-03T05:43:06;5.20;61.70
12329;DHT22;6230;52.390;10.256;2023-04-03T05:45:32;5.30;61.80
12329;DHT22;6230;52.390;10.256;2023-04-03T05:47:57;5.30;61.90
12329;DHT22;6230;52.390;10.256;2023-04-03T05:50:23;5.30;62.00
12329;DHT22;6230;52.390;10.256;2023-04-03T05:52:49;5.30;62.00
12329;DHT22;6230;52.390;10.256;2023-04-03T05:55:16;5.30;62.10
12329;DHT22;6230;52.390;10.256;2023-04-03T05:57:42;5.40;62.10
12329;DHT22;6230;52.390;10.256;2023-04-03T06:00:10;5.40;62.20
12329;DHT22;6230;52.390;10.256;2023-04-03T06:02:38;5.40;62.20
12329;DHT22;6230;52.390;10.256;2023-04-03T06:05:04;5.40;62.20
12329;DHT22;6230;52.390;10.256;2023-04-03T06:07:29;5.50;62.30
12329;DHT22;6230;52.390;10.256;2023-04-03T06:09:56;5.50;62.40
12329;DHT22;6230;52.390;10.256;2023-04-03T06:12:22;5.50;62.40
12329;DHT22;6230;52.390;10.256;2023-04-03T06:14:48;5.50;63.20
12329;DHT22;6230;52.390;10.256;2023-04-03T06:17:15;5.60;62.40
12329;DHT22;6230;52.390;10.256;2023-04-03T06:19:41;5.60;62.40
12329;DHT22;6230;52.390;10.256;2023-04-03T06:22:06;5.50;62.40
12329;DHT22;6230;52.390;10.256;2023-04-03T06:24:33;5.50;62.50
12329;DHT22;6230;52.390;10.256;2023-04-03T06:26:58;5.50;62.60
12329;DHT22;6230;52.390;10.256;2023-04-03T06:29:24;5.50;62.80
12329;DHT22;6230;52.390;10.256;2023-04-03T06:31:51;5.50;62.70
12329;DHT22;6230;52.390;10.256;2023-04-03T06:34:17;5.50;62.70
12329;DHT22;6230;52.390;10.256;2023-04-03T06:36:43;5.60;62.80
12329;DHT22;6230;52.390;10.256;2023-04-03T06:39:15;5.50;62.70
12329;DHT22;6230;52.390;10.256;2023-04-03T06:41:41;5.50;62.90
12329;DHT22;6230;52.390;10.256;2023-04-03T06:44:07;5.50;62.90
12329;DHT22;6230;52.390;10.256;2023-04-03T06:46:36;5.60;63.00
12329;DHT22;6230;52.390;10.256;2023-04-03T06:49:03;5.60;63.10
12329;DHT22;6230;52.390;10.256;2023-04-03T06:51:29;5.60;63.10
12329;DHT22;6230;52.390;10.256;2023-04-03T06:53:57;5.60;63.90
12329;DHT22;6230;52.390;10.256;2023-04-03T06:56:23;5.60;63.10
12329;DHT22;6230;52.390;10.256;2023-04-03T06:58:49;5.60;63.10
12329;DHT22;6230;52.390;10.256;2023-04-03T07:01:17;5.70;63.20
12329;DHT22;6230;52.390;10.256;2023-04-03T07:03:44;5.70;63.20
12329;DHT22;6230;52.390;10.256;2023-04-03T07:06:12;5.70;63.10
12329;DHT22;6230;52.390;10.256;2023-04-03T07:08:38;5.80;63.20
12329;DHT22;6230;52.390;10.256;2023-04-03T07:11:04;5.80;63.20
12329;DHT22;6230;52.390;10.256;2023-04-03T07:13:30;5.80;63.20
12329;DHT22;6230;52.390;10.256;2023-04-03T07:15:55;5.90;63.20
12329;DHT22;6230;52.390;10.256;2023-04-03T07:18:21;5.90;63.10
12329;DHT22;6230;52.390;10.256;2023-04-03T07:20:47;6.00;63.20
12329;DHT22;6230;52.390;10.256;2023-04-03T07:23:13;6.00;63.10
12329;DHT22;6230;52.390;10.256;2023-04-03T07:25:43;6.10;63.00
12329;DHT22;6230;52.390;10.256;2023-04-03T07:28:09;6.10;63.10
12329;DHT22;6230;52.390;10.256;2023-04-03T07:30:35;6.10;62.90
12329;DHT22;6230;52.390;10.256;2023-04-03T07:33:01;6.20;63.00
12329;DHT22;6230;52.390;10.256;2023-04-03T07:35:26;6.20;63.00
12329;DHT22;6230;52.390;10.256;2023-04-03T07:37:52;6.20;62.80
12329;DHT22;6230;52.390;10.256;2023-04-03T07:40:18;6.20;62.80
12329;DHT22;6230;52.390;10.256;2023-04-03T07:42:44;6.20;62.90
12329;DHT22;6230;52.390;10.256;2023-04-03T07:45:10;6.30;62.90
12329;DHT22;6230;52.390;10.256;2023-04-03T07:47:36;6.30;63.00
12329;DHT22;6230;52.390;10.256;2023-04-03T07:50:02;6.40;63.10
12329;DHT22;6230;52.390;10.256;2023-04-03T07:52:27;6.50;62.90
12329;DHT22;6230;52.390;10.256;2023-04-03T07:54:53;6.50;62.90
12329;DHT22;6230;52.390;10.256;2023-04-03T07:57:19;6.60;62.70
12329;DHT22;6230;52.390;10.256;2023-04-03T07:59:44;6.60;62.60
12329;DHT22;6230;52.390;10.256;2023-04-03T08:02:13;6.60;62.60
12329;DHT22;6230;52.390;10.256;2023-04-03T08:04:38;6.70;62.50
12329;DHT22;6230;52.390;10.256;2023-04-03T08:07:05;6.70;62.50
12329;DHT22;6230;52.390;10.256;2023-04-03T08:09:31;6.80;63.40
12329;DHT22;6230;52.390;10.256;2023-04-03T08:11:57;6.80;62.50
12329;DHT22;6230;52.390;10.256;2023-04-03T08:14:23;6.90;62.40
12329;DHT22;6230;52.390;10.256;2023-04-03T08:16:49;6.90;62.30
12329;DHT22;6230;52.390;10.256;2023-04-03T08:19:16;7.00;62.30
12329;DHT22;6230;52.390;10.256;2023-04-03T08:21:43;7.10;62.20
12329;DHT22;6230;52.390;10.256;2023-04-03T08:24:10;7.20;61.90
12329;DHT22;6230;52.390;10.256;2023-04-03T08:26:35;7.20;61.70
12329;DHT22;6230;52.390;10.256;2023-04-03T08:29:01;7.30;61.70
12329;DHT22;6230;52.390;10.256;2023-04-03T08:31:27;7.40;61.60
12329;DHT22;6230;52.390;10.256;2023-04-03T08:33:54;7.50;61.50
12329;DHT22;6230;52.390;10.256;2023-04-03T08:36:27;7.60;60.90
12329;DHT22;6230;52.390;10.256;2023-04-03T08:38:54;7.70;60.90
12329;DHT22;6230;52.390;10.256;2023-04-03T08:41:35;7.80;61.70
12329;DHT22;6230;52.390;10.256;2023-04-03T08:47:02;7.90;60.30
12329;DHT22;6230;52.390;10.256;2023-04-03T08:49:37;8.00;60.10
12329;DHT22;6230;52.390;10.256;2023-04-03T08:52:11;8.10;60.00
12329;DHT22;6230;52.390;10.256;2023-04-03T08:54:49;8.20;59.80
12329;DHT22;6230;52.390;10.256;2023-04-03T08:57:17;8.30;59.30
12329;DHT22;6230;52.390;10.256;2023-04-03T08:59:44;8.40;59.10
12329;DHT22;6230;52.390;10.256;2023-04-03T09:02:34;8.50;59.00
12329;DHT22;6230;52.390;10.256;2023-04-03T09:05:02;8.60;58.80
12329;DHT22;6230;52.390;10.256;2023-04-03T09:07:39;8.70;58.50
12329;DHT22;6230;52.390;10.256;2023-04-03T09:10:10;8.80;58.20
12329;DHT22;6230;52.390;10.256;2023-04-03T09:12:39;8.90;58.00
12329;DHT22;6230;52.390;10.256;2023-04-03T09:18:06;9.20;57.00
12329;DHT22;6230;52.390;10.256;2023-04-03T09:23:51;9.40;56.20
12329;DHT22;6230;52.390;10.256;2023-04-03T09:29:06;9.50;56.00
12329;DHT22;6230;52.390;10.256;2023-04-03T09:31:40;9.40;55.90
12329;DHT22;6230;52.390;10.256;2023-04-03T09:34:23;9.40;55.90
12329;DHT22;6230;52.390;10.256;2023-04-03T09:36:53;9.50;55.70
12329;DHT22;6230;52.390;10.256;2023-04-03T09:39:22;9.50;55.80
12329;DHT22;6230;52.390;10.256;2023-04-03T09:42:06;9.60;55.80
12329;DHT22;6230;52.390;10.256;2023-04-03T09:44:40;9.60;55.60
12329;DHT22;6230;52.390;10.256;2023-04-03T09:49:43;9.50;55.60
12329;DHT22;6230;52.390;10.256;2023-04-03T09:52:26;9.40;55.60
12329;DHT22;6230;52.390;10.256;2023-04-03T09:54:52;9.30;55.50
12329;DHT22;6230;52.390;10.256;2023-04-03T09:57:17;9.20;55.60
12329;DHT22;6230;52.390;10.256;2023-04-03T10:00:04;9.10;55.10
12329;DHT22;6230;52.390;10.256;2023-04-03T10:02:40;9.10;55.20
12329;DHT22;6230;52.390;10.256;2023-04-03T10:05:35;8.90;55.40
12329;DHT22;6230;52.390;10.256;2023-04-03T10:08:10;8.90;55.30
12329;DHT22;6230;52.390;10.256;2023-04-03T10:10:37;8.80;55.50
12329;DHT22;6230;52.390;10.256;2023-04-03T10:13:07;8.80;55.50
12329;DHT22;6230;52.390;10.256;2023-04-03T10:15:41;8.80;55.50
12329;DHT22;6230;52.390;10.256;2023-04-03T10:20:54;9.00;55.30
12329;DHT22;6230;52.390;10.256;2023-04-03T10:23:26;9.00;55.20
12329;DHT22;6230;52.390;10.256;2023-04-03T10:29:13;9.10;55.20
12329;DHT22;6230;52.390;10.256;2023-04-03T10:31:50;9.10;55.10
12329;DHT22;6230;52.390;10.256;2023-04-03T10:34:26;9.10;55.10
12329;DHT22;6230;52.390;10.256;2023-04-03T10:37:06;9.10;55.00
12329;DHT22;6230;52.390;10.256;2023-04-03T10:39:40;9.00;54.80
12329;DHT22;6230;52.390;10.256;2023-04-03T10:48:11;9.10;54.50
12329;DHT22;6230;52.390;10.256;2023-04-03T10:53:32;9.10;54.40
12329;DHT22;6230;52.390;10.256;2023-04-03T10:58:42;9.30;54.70
12329;DHT22;6230;52.390;10.256;2023-04-03T11:01:13;9.50;54.40
12329;DHT22;6230;52.390;10.256;2023-04-03T11:04:04;9.50;54.10
12329;DHT22;6230;52.390;10.256;2023-04-03T11:06:37;9.60;54.00
12329;DHT22;6230;52.390;10.256;2023-04-03T11:09:15;9.60;54.00
12329;DHT22;6230;52.390;10.256;2023-04-03T11:11:44;9.60;53.90
12329;DHT22;6230;52.390;10.256;2023-04-03T11:16:47;9.60;53.90
12329;DHT22;6230;52.390;10.256;2023-04-03T11:19:27;9.70;53.90
12329;DHT22;6230;52.390;10.256;2023-04-03T11:22:10;9.70;53.80
12329;DHT22;6230;52.390;10.256;2023-04-03T11:24:41;9.80;53.80
12329;DHT22;6230;52.390;10.256;2023-04-03T11:27:21;9.80;53.90
12329;DHT22;6230;52.390;10.256;2023-04-03T11:29:49;10.00;54.00
12329;DHT22;6230;52.390;10.256;2023-04-03T11:34:59;10.40;53.40
12329;DHT22;6230;52.390;10.256;2023-04-03T11:37:33;10.60;53.50
12329;DHT22;6230;52.390;10.256;2023-04-03T11:40:08;10.90;53.30
12329;DHT22;6230;52.390;10.256;2023-04-03T11:42:47;11.20;52.80
12329;DHT22;6230;52.390;10.256;2023-04-03T11:47:55;11.50;51.80
12329;DHT22;6230;52.390;10.256;2023-04-03T12:19:29;13.00;47.80
12329;DHT22;6230;52.390;10.256;2023-04-03T12:24:28;13.10;47.00
12329;DHT22;6230;52.390;10.256;2023-04-03T12:46:59;12.30;47.80
12329;DHT22;6230;52.390;10.256;2023-04-03T12:49:42;12.20;47.90
12329;DHT22;6230;52.390;10.256;2023-04-03T12:52:33;12.10;48.10
12329;DHT22;6230;52.390;10.256;2023-04-03T12:55:01;12.10;48.50
12329;DHT22;6230;52.390;10.256;2023-04-03T12:57:30;12.20;48.60
12329;DHT22;6230;52.390;10.256;2023-04-03T12:59:58;12.40;48.50
12329;DHT22;6230;52.390;10.256;2023-04-03T13:02:29;12.40;48.30
12329;DHT22;6230;52.390;10.256;2023-04-03T13:05:04;12.30;48.20
12329;DHT22;6230;52.390;10.256;2023-04-03T13:07:33;12.20;48.10
12329;DHT22;6230;52.390;10.256;2023-04-03T13:12:35;12.40;48.10
12329;DHT22;6230;52.390;10.256;2023-04-03T13:15:14;12.50;47.90
12329;DHT22;6230;52.390;10.256;2023-04-03T13:17:41;12.80;47.80
12329;DHT22;6230;52.390;10.256;2023-04-03T13:20:25;12.90;47.30
12329;DHT22;6230;52.390;10.256;2023-04-03T13:22:57;12.90;46.60
12329;DHT22;6230;52.390;10.256;2023-04-03T13:25:26;13.00;47.00
12329;DHT22;6230;52.390;10.256;2023-04-03T13:27:52;13.10;47.20
12329;DHT22;6230;52.390;10.256;2023-04-03T13:30:33;13.40;47.00
12329;DHT22;6230;52.390;10.256;2023-04-03T13:33:02;13.60;46.40
12329;DHT22;6230;52.390;10.256;2023-04-03T13:35:34;13.80;46.40
12329;DHT22;6230;52.390;10.256;2023-04-03T13:40:49;13.90;45.80
12329;DHT22;6230;52.390;10.256;2023-04-03T13:43:21;13.80;45.70
12329;DHT22;6230;52.390;10.256;2023-04-03T13:48:44;13.20;45.40
12329;DHT22;6230;52.390;10.256;2023-04-03T13:54:00;12.90;45.80
12329;DHT22;6230;52.390;10.256;2023-04-03T13:56:31;13.10;46.10
12329;DHT22;6230;52.390;10.256;2023-04-03T14:01:57;13.00;45.90
12329;DHT22;6230;52.390;10.256;2023-04-03T14:07:06;12.60;46.40
12329;DHT22;6230;52.390;10.256;2023-04-03T14:09:31;12.50;46.50
12329;DHT22;6230;52.390;10.256;2023-04-03T14:12:02;12.40;46.60
12329;DHT22;6230;52.390;10.256;2023-04-03T14:14:33;12.50;46.70
12329;DHT22;6230;52.390;10.256;2023-04-03T14:17:01;12.60;46.60
12329;DHT22;6230;52.390;10.256;2023-04-03T14:19:35;12.80;46.30
12329;DHT22;6230;52.390;10.256;2023-04-03T14:22:11;13.00;45.80
12329;DHT22;6230;52.390;10.256;2023-04-03T14:24:37;13.00;45.40
12329;DHT22;6230;52.390;10.256;2023-04-03T14:27:18;13.10;45.50
12329;DHT22;6230;52.390;10.256;2023-04-03T14:29:45;13.20;44.80
12329;DHT22;6230;52.390;10.256;2023-04-03T14:32:13;13.30;44.70
12329;DHT22;6230;52.390;10.256;2023-04-03T14:34:39;13.30;44.60
12329;DHT22;6230;52.390;10.256;2023-04-03T14:37:09;13.30;44.30
12329;DHT22;6230;52.390;10.256;2023-04-03T14:39:35;13.10;44.20
12329;DHT22;6230;52.390;10.256;2023-04-03T14:42:00;13.00;44.30
12329;DHT22;6230;52.390;10.256;2023-04-03T14:44:26;12.90;44.70
12329;DHT22;6230;52.390;10.256;2023-04-03T14:46:51;12.70;44.70
12329;DHT22;6230;52.390;10.256;2023-04-03T14:49:22;12.60;44.50
12329;DHT22;6230;52.390;10.256;2023-04-03T14:51:49;12.50;44.90
12329;DHT22;6230;52.390;10.256;2023-04-03T14:54:19;12.40;45.30
12329;DHT22;6230;52.390;10.256;2023-04-03T14:56:50;12.40;45.60
12329;DHT22;6230;52.390;10.256;2023-04-03T14:59:16;12.30;45.70
12329;DHT22;6230;52.390;10.256;2023-04-03T15:01:43;12.30;45.60
12329;DHT22;6230;52.390;10.256;2023-04-03T15:04:26;12.30;45.70
12329;DHT22;6230;52.390;10.256;2023-04-03T15:06:53;12.30;45.70
12329;DHT22;6230;52.390;10.256;2023-04-03T15:09:25;12.20;45.90
12329;DHT22;6230;52.390;10.256;2023-04-03T15:11:52;12.10;45.70
12329;DHT22;6230;52.390;10.256;2023-04-03T15:14:18;12.10;45.80
12329;DHT22;6230;52.390;10.256;2023-04-03T15:16:44;12.10;45.60
12329;DHT22;6230;52.390;10.256;2023-04-03T15:19:10;12.10;45.50
12329;DHT22;6230;52.390;10.256;2023-04-03T15:21:36;12.10;45.40
12329;DHT22;6230;52.390;10.256;2023-04-03T15:24:02;12.10;44.90
12329;DHT22;6230;52.390;10.256;2023-04-03T15:26:27;12.00;44.90
12329;DHT22;6230;52.390;10.256;2023-04-03T15:28:53;11.90;44.80
12329;DHT22;6230;52.390;10.256;2023-04-03T15:31:19;12.00;45.10
12329;DHT22;6230;52.390;10.256;2023-04-03T15:33:44;12.00;45.10
12329;DHT22;6230;52.390;10.256;2023-04-03T15:36:10;11.90;44.60
12329;DHT22;6230;52.390;10.256;2023-04-03T15:38:36;11.80;44.60
12329;DHT22;6230;52.390;10.256;2023-04-03T15:41:04;11.70;44.80
12329;DHT22;6230;52.390;10.256;2023-04-03T15:43:30;11.60;45.00
12329;DHT22;6230;52.390;10.256;2023-04-03T15:45:57;11.60;45.20
12329;DHT22;6230;52.390;10.256;2023-04-03T15:48:23;11.50;45.30
12329;DHT22;6230;52.390;10.256;2023-04-03T15:50:49;11.50;45.60
12329;DHT22;6230;52.390;10.256;2023-04-03T15:53:15;11.50;46.20
12329;DHT22;6230;52.390;10.256;2023-04-03T15:55:40;11.60;45.70
12329;DHT22;6230;52.390;10.256;2023-04-03T15:58:06;11.60;45.80
12329;DHT22;6230;52.390;10.256;2023-04-03T16:00:32;11.70;45.80
12329;DHT22;6230;52.390;10.256;2023-04-03T16:03:02;11.70;45.60
12329;DHT22;6230;52.390;10.256;2023-04-03T16:05:30;11.70;45.40
12329;DHT22;6230;52.390;10.256;2023-04-03T16:07:57;11.60;45.30
12329;DHT22;6230;52.390;10.256;2023-04-03T16:10:23;11.60;45.50
12329;DHT22;6230;52.390;10.256;2023-04-03T16:12:49;11.50;45.60
12329;DHT22;6230;52.390;10.256;2023-04-03T16:15:14;11.50;45.40
12329;DHT22;6230;52.390;10.256;2023-04-03T16:17:40;11.40;45.30
12329;DHT22;6230;52.390;10.256;2023-04-03T16:20:08;11.30;45.30
12329;DHT22;6230;52.390;10.256;2023-04-03T16:22:34;11.30;45.30
12329;DHT22;6230;52.390;10.256;2023-04-03T16:25:00;11.20;45.50
12329;DHT22;6230;52.390;10.256;2023-04-03T16:27:26;11.20;45.60
12329;DHT22;6230;52.390;10.256;2023-04-03T16:29:54;11.20;45.70
12329;DHT22;6230;52.390;10.256;2023-04-03T16:32:21;11.20;45.70
12329;DHT22;6230;52.390;10.256;2023-04-03T16:34:47;11.20;45.60
12329;DHT22;6230;52.390;10.256;2023-04-03T16:37:12;11.10;45.40
12329;DHT22;6230;52.390;10.256;2023-04-03T16:39:38;11.10;45.40
12329;DHT22;6230;52.390;10.256;2023-04-03T16:42:04;11.10;45.70
12329;DHT22;6230;52.390;10.256;2023-04-03T16:44:29;11.10;45.80
12329;DHT22;6230;52.390;10.256;2023-04-03T16:46:55;11.00;45.80
12329;DHT22;6230;52.390;10.256;2023-04-03T16:49:20;11.00;45.70
12329;DHT22;6230;52.390;10.256;2023-04-03T16:51:48;11.00;45.50
12329;DHT22;6230;52.390;10.256;2023-04-03T16:54:13;11.00;45.60
12329;DHT22;6230;52.390;10.256;2023-04-03T16:56:39;11.00;45.60
12329;DHT22;6230;52.390;10.256;2023-04-03T16:59:05;10.90;45.50
12329;DHT22;6230;52.390;10.256;2023-04-03T17:01:31;10.90;45.50
12329;DHT22;6230;52.390;10.256;2023-04-03T17:03:57;10.90;45.70
12329;DHT22;6230;52.390;10.256;2023-04-03T17:06:23;10.90;45.90
12329;DHT22;6230;52.390;10.256;2023-04-03T17:08:50;10.80;46.00
12329;DHT22;6230;52.390;10.256;2023-04-03T17:11:16;10.80;46.10
12329;DHT22;6230;52.390;10.256;2023-04-03T17:13:42;10.80;46.10
12329;DHT22;6230;52.390;10.256;2023-04-03T17:16:11;10.80;45.90
12329;DHT22;6230;52.390;10.256;2023-04-03T17:18:37;10.70;45.80
12329;DHT22;6230;52.390;10.256;2023-04-03T17:21:04;10.70;45.90
12329;DHT22;6230;52.390;10.256;2023-04-03T17:23:30;10.70;45.80
12329;DHT22;6230;52.390;10.256;2023-04-03T17:25:56;10.70;45.80
12329;DHT22;6230;52.390;10.256;2023-04-03T17:28:22;10.60;45.80
12329;DHT22;6230;52.390;10.256;2023-04-03T17:30:57;10.60;45.80
12329;DHT22;6230;52.390;10.256;2023-04-03T17:33:24;10.60;45.80
12329;DHT22;6230;52.390;10.256;2023-04-03T17:35:50;10.60;45.90
12329;DHT22;6230;52.390;10.256;2023-04-03T17:38:16;10.60;45.90
12329;DHT22;6230;52.390;10.256;2023-04-03T17:40:42;10.70;46.00